Time;durP1;ratioP1;P1;durP2;ratioP2;P2;SDS_P1;SDS_P2;PMS_P1;PMS_P2;Temp;Humidity;BMP_temperature;BMP_pressure;BME280_temperature;BME280_humidity;BME280_pressure;Samples;Min_cycle;Max_cycle;Signal;HPM_P1;HPM_P2
2022/10/20 00:00:10;;;;;;;23.20;13.67;;;13.30;99.90;;;13.78;100.00;98443.81;5003004;28;20489;-86
2022/10/20 00:02:39;;;;;;;22.87;12.20;;;13.30;99.90;;;13.70;100.00;98443.19;5002548;28;20552;-86
2022/10/20 00:05:09;;;;;;;22.73;13.33;;;13.20;99.90;;;13.68;100.00;98445.19;5004031;28;20486;-88
2022/10/20 00:07:37;;;;;;;23.30;12.80;;;13.20;99.90;;;13.68;100.00;98445.19;5006087;28;20979;-87
2022/10/20 00:10:08;;;;;;;21.13;13.90;;;13.20;99.90;;;13.62;100.00;98446.78;5002799;28;20475;-86
2022/10/20 00:12:37;;;;;;;24.40;12.67;;;13.10;99.90;;;13.56;100.00;98445.78;5003985;28;20498;-87
2022/10/20 00:15:07;;;;;;;26.10;12.07;;;13.10;99.90;;;13.58;100.00;98451.63;5006862;28;20471;-88
2022/10/20 00:17:36;;;;;;;26.00;13.93;;;13.10;99.90;;;13.55;100.00;98457.28;5002858;28;20894;-85
2022/10/20 00:20:05;;;;;;;22.67;13.50;;;13.10;99.90;;;13.54;100.00;98455.66;5001181;28;20570;-87
2022/10/20 00:22:34;;;;;;;23.10;13.30;;;13.10;99.90;;;13.53;100.00;98433.03;5004280;28;20817;-87
2022/10/20 00:25:03;;;;;;;22.83;14.80;;;13.10;99.90;;;13.47;100.00;98427.72;5003554;28;20458;-87
2022/10/20 00:27:34;;;;;;;22.33;13.00;;;13.00;99.90;;;13.47;100.00;98425.09;5002637;28;20546;-85
2022/10/20 00:30:05;;;;;;;21.50;13.13;;;13.00;99.90;;;13.43;100.00;98422.03;5003113;28;21192;-86
2022/10/20 00:32:34;;;;;;;23.00;14.10;;;12.90;99.90;;;13.40;100.00;98411.94;5004101;28;20531;-88
2022/10/20 00:35:05;;;;;;;26.13;14.93;;;12.90;99.90;;;13.40;100.00;98401.41;5003319;28;20881;-87
2022/10/20 00:37:34;;;;;;;22.30;13.33;;;12.90;99.90;;;13.37;100.00;98401.81;5002911;28;20462;-87
2022/10/20 00:40:03;;;;;;;26.03;15.00;;;12.80;99.90;;;13.38;100.00;98407.88;5005565;28;20514;-86
2022/10/20 00:42:33;;;;;;;28.13;13.30;;;12.80;99.90;;;13.32;100.00;98404.25;5005044;28;20459;-87
2022/10/20 00:45:11;;;;;;;26.30;15.27;;;12.80;99.90;;;13.27;100.00;98406.63;5005083;28;20444;-87
2022/10/20 00:47:48;;;;;;;30.50;14.60;;;12.80;99.90;;;13.29;100.00;98415.13;5005088;28;20604;-86
2022/10/20 00:50:22;;;;;;;25.77;14.07;;;12.80;99.90;;;13.29;100.00;98415.13;5003341;28;20454;-87
2022/10/20 00:52:53;;;;;;;24.57;13.80;;;12.80;99.90;;;13.24;100.00;98412.28;5003617;28;20561;-87
2022/10/20 00:55:29;;;;;;;26.27;14.53;;;12.70;99.90;;;13.23;100.00;98410.63;5002673;28;20482;-85
2022/10/20 00:58:02;;;;;;;23.30;13.73;;;12.70;99.90;;;13.25;100.00;98419.16;5005830;28;20973;-87
2022/10/20 01:00:32;;;;;;;25.40;14.00;;;12.70;99.90;;;13.26;100.00;98412.09;5002974;28;20554;-87
2022/10/20 01:03:04;;;;;;;26.50;13.97;;;12.70;99.90;;;13.25;100.00;98416.53;5003425;28;20550;-87
2022/10/20 01:05:33;;;;;;;30.23;15.97;;;12.80;99.90;;;13.22;100.00;98409.03;5002907;28;20562;-86
2022/10/20 01:08:01;;;;;;;24.90;13.77;;;12.70;99.90;;;13.21;100.00;98404.78;5001387;28;20467;-87
2022/10/20 01:10:41;;;;;;;33.60;12.60;;;12.70;99.90;;;13.20;100.00;98408.41;5003425;28;20470;-87
2022/10/20 01:13:24;;;;;;;20.50;14.03;;;12.70;99.90;;;13.19;100.00;98398.91;5000206;28;20492;-87
2022/10/20 01:16:09;;;;;;;25.23;14.20;;;12.60;99.90;;;13.19;100.00;98395.50;5003086;28;20459;-86
2022/10/20 01:18:53;;;;;;;24.77;14.17;;;12.70;99.90;;;13.19;100.00;98388.41;5005455;28;20456;-87
2022/10/20 01:21:56;;;;;;;23.40;12.80;;;12.70;99.90;;;13.21;100.00;98396.09;5001095;28;20565;-88
2022/10/20 01:24:46;;;;;;;27.93;14.47;;;12.60;99.90;;;13.18;100.00;98392.03;5003074;28;21245;-87
2022/10/20 01:27:36;;;;;;;21.70;12.77;;;12.60;99.90;;;13.17;100.00;98377.28;5002449;28;20579;-87
2022/10/20 01:30:11;;;;;;;30.83;14.50;;;12.70;99.90;;;13.16;100.00;98378.28;5002583;28;20492;-87
2022/10/20 01:33:01;;;;;;;27.17;13.87;;;12.60;99.90;;;13.18;100.00;98373.66;5004095;28;20902;-86
2022/10/20 01:35:43;;;;;;;22.53;13.47;;;12.60;99.90;;;13.10;100.00;98368.56;5004783;28;20457;-86
2022/10/20 01:38:23;;;;;;;23.60;13.43;;;12.60;99.90;;;13.06;100.00;98365.50;5004288;28;20467;-86
2022/10/20 01:41:02;;;;;;;23.57;14.10;;;12.50;99.90;;;13.09;100.00;98367.75;5005448;28;21020;-87
2022/10/20 01:43:38;;;;;;;22.07;13.20;;;12.50;99.90;;;13.09;100.00;98365.13;5004492;28;20462;-87
2022/10/20 01:46:11;;;;;;;25.60;13.47;;;12.40;99.90;;;13.07;100.00;98356.63;5005101;28;20557;-87
2022/10/20 01:48:42;;;;;;;28.10;13.50;;;12.50;99.90;;;13.07;100.00;98356.63;5004470;28;20518;-86
2022/10/20 01:51:12;;;;;;;26.13;13.20;;;12.50;99.90;;;13.03;100.00;98341.44;5003031;28;21021;-86
2022/10/20 01:53:41;;;;;;;21.00;13.30;;;12.50;99.90;;;13.00;100.00;98332.16;5002057;28;20460;-87
2022/10/20 01:56:18;;;;;;;22.73;12.33;;;12.40;99.90;;;13.02;100.00;98337.19;4999788;28;20570;-86
2022/10/20 01:59:29;;;;;;;22.70;14.07;;;12.40;99.90;;;13.01;100.00;98343.47;5003445;28;20558;-87
2022/10/20 02:02:22;;;;;;;21.27;12.50;;;12.50;99.90;;;12.96;100.00;98330.91;5005389;28;20538;-86
2022/10/20 02:05:16;;;;;;;26.90;11.83;;;12.50;99.90;;;12.95;100.00;98336.34;5002995;28;20470;-86
2022/10/20 02:07:44;;;;;;;21.87;12.63;;;12.40;99.90;;;12.96;100.00;98335.34;5002038;28;20549;-85
2022/10/20 02:10:19;;;;;;;24.87;13.20;;;12.40;99.90;;;12.97;100.00;98336.97;5002451;28;20498;-87
2022/10/20 02:12:54;;;;;;;22.40;12.50;;;12.40;99.90;;;12.99;100.00;98342.84;5000860;28;20467;-86
2022/10/20 02:15:28;;;;;;;19.43;13.50;;;12.40;99.90;;;12.95;100.00;98333.72;5001226;28;20493;-88
2022/10/20 02:18:03;;;;;;;23.27;12.90;;;12.50;99.90;;;12.93;100.00;98330.50;5000681;28;20558;-87
2022/10/20 02:20:33;;;;;;;26.70;12.47;;;12.40;99.90;;;12.85;100.00;98331.47;5001646;28;20895;-86
2022/10/20 02:23:05;;;;;;;23.00;13.90;;;12.30;99.90;;;12.85;100.00;98325.41;5001792;28;20985;-86
2022/10/20 02:25:35;;;;;;;32.60;12.27;;;12.30;99.90;;;12.86;100.00;98327.03;5004090;28;20478;-86
2022/10/20 02:28:08;;;;;;;35.87;11.93;;;12.30;99.90;;;12.85;100.00;98328.84;5001544;28;20472;-86
2022/10/20 02:30:42;;;;;;;24.23;12.90;;;12.20;99.90;;;12.85;100.00;98317.53;5000698;28;20500;-87
2022/10/20 02:33:13;;;;;;;25.23;13.67;;;12.20;99.90;;;12.84;100.00;98321.16;5004282;28;20581;-86
2022/10/20 02:35:50;;;;;;;22.97;12.70;;;12.30;99.90;;;12.76;100.00;98313.44;5003095;28;20502;-86
2022/10/20 02:38:19;;;;;;;22.43;13.07;;;12.20;99.90;;;12.73;100.00;98312.03;5001063;28;20549;-86
2022/10/20 02:40:48;;;;;;;21.63;12.27;;;12.20;99.90;;;12.69;100.00;98305.53;5000881;28;20593;-87
2022/10/20 02:43:17;;;;;;;20.20;12.30;;;12.10;99.90;;;12.73;100.00;98313.84;5003033;28;20471;-87
2022/10/20 02:45:48;;;;;;;19.97;12.87;;;12.10;99.90;;;12.72;100.00;98323.53;5016493;28;20471;-87
2022/10/20 02:48:17;;;;;;;23.53;13.30;;;12.10;99.90;;;12.72;100.00;98317.47;5000913;28;20495;-86
2022/10/20 02:50:45;;;;;;;22.77;12.07;;;12.20;99.90;;;12.68;100.00;98311.78;5002242;28;20492;-86
2022/10/20 02:53:15;;;;;;;26.53;14.30;;;12.20;99.90;;;12.65;100.00;98317.41;5002304;28;20466;-87
2022/10/20 02:55:44;;;;;;;24.33;13.10;;;12.20;99.90;;;12.56;100.00;98308.09;4998507;28;20873;-87
2022/10/20 02:58:13;;;;;;;29.33;13.10;;;12.00;99.90;;;12.50;100.00;98299.16;5001453;28;21009;-85
2022/10/20 03:00:42;;;;;;;22.30;12.60;;;11.90;99.90;;;12.48;100.00;98303.81;5003113;28;20498;-86
2022/10/20 03:03:12;;;;;;;17.40;12.13;;;11.90;99.90;;;12.44;100.00;98305.19;5004214;28;20478;-85
2022/10/20 03:05:43;;;;;;;24.37;12.87;;;11.90;99.90;;;12.42;100.00;98293.28;4998963;28;20459;-86
2022/10/20 03:08:12;;;;;;;26.03;11.63;;;11.80;99.90;;;12.39;100.00;98291.03;5001928;28;20471;-86
2022/10/20 03:10:41;;;;;;;32.00;14.13;;;11.80;99.90;;;12.35;100.00;98293.25;5000956;28;21128;-86
2022/10/20 03:13:10;;;;;;;30.77;13.33;;;11.70;99.90;;;12.31;100.00;98286.75;5000952;28;20490;-86
2022/10/20 03:15:40;;;;;;;23.10;12.40;;;11.60;99.90;;;12.29;100.00;98280.88;5001541;28;20482;-86
2022/10/20 03:18:08;;;;;;;24.93;13.30;;;11.70;99.90;;;12.30;100.00;98279.88;5001078;28;20471;-86
2022/10/20 03:20:38;;;;;;;20.27;12.97;;;11.80;99.90;;;12.24;100.00;98285.91;4999721;28;21150;-85
2022/10/20 03:23:06;;;;;;;23.40;12.80;;;11.70;99.90;;;12.17;100.00;98279.81;5001749;28;20757;-85
2022/10/20 03:25:36;;;;;;;19.80;12.67;;;11.60;99.90;;;12.15;100.00;98276.53;5004477;28;20502;-85
2022/10/20 03:28:05;;;;;;;25.43;14.77;;;11.50;99.90;;;12.13;100.00;98275.13;5003079;28;20960;-80
2022/10/20 03:30:34;;;;;;;21.63;12.83;;;11.50;99.90;;;12.17;100.00;98274.56;5003333;28;20545;-85
2022/10/20 03:33:03;;;;;;;22.57;14.30;;;11.60;99.90;;;12.08;100.00;98273.06;5006240;28;20462;-84
2022/10/20 03:35:32;;;;;;;27.07;13.57;;;11.50;99.90;;;12.11;100.00;98277.94;5005310;28;20503;-85
2022/10/20 03:38:02;;;;;;;20.57;12.73;;;11.50;99.90;;;12.13;100.00;98278.56;5004830;28;20552;-87
2022/10/20 03:40:31;;;;;;;25.77;14.03;;;11.60;99.90;;;12.15;100.00;98279.16;5006964;28;20804;-87
2022/10/20 03:43:00;;;;;;;19.17;12.20;;;11.60;99.90;;;12.12;100.00;98279.53;5005304;28;20950;-86
2022/10/20 03:45:29;;;;;;;25.50;12.70;;;11.60;99.90;;;12.08;100.00;98275.69;5006914;28;20550;-87
2022/10/20 03:47:58;;;;;;;20.00;12.80;;;11.50;99.90;;;12.09;100.00;98269.44;5004611;28;20467;-87
2022/10/20 03:50:27;;;;;;;23.07;12.83;;;11.40;99.90;;;12.09;100.00;98264.22;5007545;28;20612;-87
2022/10/20 03:52:56;;;;;;;24.37;14.00;;;11.40;99.90;;;12.06;100.00;98260.16;5005667;28;20503;-87
2022/10/20 03:55:26;;;;;;;25.77;13.40;;;11.50;99.90;;;12.03;100.00;98260.56;5003032;28;21164;-88
2022/10/20 03:57:55;;;;;;;21.80;12.60;;;11.50;99.90;;;12.01;100.00;98249.44;5005757;28;20502;-87
2022/10/20 04:00:24;;;;;;;23.30;12.30;;;11.40;99.90;;;11.99;100.00;98243.56;5004133;28;20529;-83
2022/10/20 04:02:53;;;;;;;21.10;12.33;;;11.30;99.90;;;11.93;100.00;98243.53;5008373;28;20473;-89
2022/10/20 04:05:23;;;;;;;20.73;11.53;;;11.30;99.90;;;11.95;100.00;98238.91;5003450;28;20474;-87
2022/10/20 04:07:52;;;;;;;24.63;13.00;;;11.30;99.90;;;11.93;100.00;98228.63;5006737;28;20459;-81
2022/10/20 04:10:22;;;;;;;19.23;11.67;;;11.30;99.90;;;11.89;100.00;98219.53;5003077;28;20484;-88
2022/10/20 04:12:52;;;;;;;21.23;12.10;;;11.20;99.90;;;11.87;100.00;98212.84;5004782;28;20478;-88
2022/10/20 04:15:20;;;;;;;25.33;10.77;;;11.20;99.90;;;11.87;100.00;98218.09;5001183;28;20464;-86
2022/10/20 04:17:49;;;;;;;17.53;11.03;;;11.20;99.90;;;11.90;100.00;98228.19;5003403;28;20558;-85
2022/10/20 04:20:18;;;;;;;16.00;10.90;;;11.30;99.90;;;11.90;100.00;98217.72;5004348;28;20557;-86
2022/10/20 04:22:47;;;;;;;21.80;11.53;;;11.30;99.90;;;11.91;100.00;98228.00;5006031;28;20455;-85
2022/10/20 04:25:16;;;;;;;19.27;12.80;;;11.40;99.90;;;11.98;100.00;98218.38;5008656;28;20530;-86
2022/10/20 04:27:45;;;;;;;20.73;11.10;;;11.40;99.90;;;12.02;100.00;98216.16;5012916;28;20216;-87
2022/10/20 04:30:17;;;;;;;27.00;12.60;;;11.40;99.90;;;12.01;100.00;98211.91;5011765;28;20519;-86
2022/10/20 04:32:46;;;;;;;24.03;12.23;;;11.40;99.90;;;12.02;100.00;98216.97;5010986;28;20884;-85
2022/10/20 04:35:15;;;;;;;17.93;11.50;;;11.40;99.90;;;12.04;100.00;98208.94;5013875;28;20455;-86
2022/10/20 04:37:45;;;;;;;26.07;11.37;;;11.50;99.90;;;11.97;100.00;98219.38;5011731;28;20451;-87
2022/10/20 04:40:15;;;;;;;19.10;10.40;;;11.40;99.90;;;12.01;100.00;98217.16;5010181;28;20497;-87
2022/10/20 04:42:43;;;;;;;19.00;10.30;;;11.40;99.90;;;12.04;100.00;98217.59;5012036;28;20535;-86
2022/10/20 04:45:13;;;;;;;18.67;10.27;;;11.40;99.90;;;12.08;100.00;98215.38;5008129;28;20553;-86
2022/10/20 04:47:44;;;;;;;24.10;11.93;;;11.40;99.90;;;12.06;100.00;98220.03;5008404;28;20531;-87
2022/10/20 04:50:13;;;;;;;20.27;10.30;;;11.40;99.90;;;12.08;100.00;98210.16;5008914;28;20498;-87
2022/10/20 04:52:42;;;;;;;18.07;9.87;;;11.40;99.90;;;12.08;100.00;98199.66;5009527;28;20455;-85
2022/10/20 04:55:12;;;;;;;18.10;11.63;;;11.50;99.90;;;12.04;100.00;98193.22;5008670;28;20539;-87
2022/10/20 04:57:40;;;;;;;23.93;10.40;;;11.40;99.90;;;12.07;100.00;98203.31;5008655;28;20539;-86
2022/10/20 05:00:11;;;;;;;14.63;9.60;;;11.50;99.90;;;12.01;100.00;98206.69;5006521;28;20486;-87
2022/10/20 05:02:40;;;;;;;16.23;10.27;;;11.50;99.90;;;12.04;100.00;98204.47;5006013;28;20498;-86
2022/10/20 05:05:11;;;;;;;15.60;9.23;;;11.40;99.90;;;12.06;100.00;98206.94;5006924;28;20455;-86
2022/10/20 05:07:40;;;;;;;16.93;10.17;;;11.50;99.90;;;12.03;100.00;98196.84;5007096;28;20479;-87
2022/10/20 05:10:10;;;;;;;22.97;11.00;;;11.40;99.90;;;12.04;100.00;98188.75;5005544;28;20486;-86
2022/10/20 05:12:40;;;;;;;17.97;10.57;;;11.40;99.90;;;12.06;100.00;98192.00;5007499;28;20494;-87
2022/10/20 05:15:09;;;;;;;13.40;10.03;;;11.40;99.90;;;12.07;100.00;98190.22;5003928;28;20983;-88
2022/10/20 05:17:39;;;;;;;17.30;10.00;;;11.40;99.90;;;12.08;100.00;98195.25;5004531;28;20462;-87
2022/10/20 05:20:10;;;;;;;19.87;8.70;;;11.40;99.90;;;12.08;100.00;98186.56;5004566;28;20464;-85
2022/10/20 05:22:39;;;;;;;17.53;10.40;;;11.30;99.90;;;12.09;100.00;98182.94;5005050;28;20526;-87
2022/10/20 05:25:09;;;;;;;22.67;9.80;;;11.40;99.90;;;12.07;100.00;98177.09;5005437;28;20455;-86
2022/10/20 05:27:58;;;;;;;21.03;8.80;;;11.40;99.90;;;12.10;100.00;98171.47;5004434;28;20440;-85
2022/10/20 05:30:28;;;;;;;16.00;9.77;;;11.50;99.90;;;12.09;100.00;98188.19;5006071;28;20486;-86
2022/10/20 05:32:57;;;;;;;20.90;10.60;;;11.40;99.90;;;12.08;100.00;98194.41;5005249;28;20447;-87
2022/10/20 05:35:29;;;;;;;23.40;10.47;;;11.40;99.90;;;12.08;100.00;98215.38;5003805;28;20585;-86
2022/10/20 05:37:59;;;;;;;21.03;11.20;;;11.30;99.90;;;12.05;100.00;98232.31;5005019;28;20455;-87
2022/10/20 05:40:27;;;;;;;18.83;9.67;;;11.30;99.90;;;12.03;100.00;98228.28;5005833;28;20452;-87
2022/10/20 05:42:57;;;;;;;20.57;10.40;;;11.30;99.90;;;12.04;100.00;98194.00;5006057;28;20471;-85
2022/10/20 05:45:26;;;;;;;16.83;10.07;;;11.40;99.90;;;12.05;100.00;98173.84;5003243;28;20459;-86
2022/10/20 05:47:55;;;;;;;19.20;11.10;;;11.30;99.90;;;12.06;100.00;98167.59;5003525;28;20574;-86
2022/10/20 05:50:23;;;;;;;26.30;9.23;;;11.40;99.90;;;12.07;100.00;98171.84;5003618;28;20505;-86
2022/10/20 05:52:54;;;;;;;20.07;10.23;;;11.30;99.90;;;12.08;100.00;98173.44;5002433;28;20526;-85
2022/10/20 05:55:23;;;;;;;19.33;10.03;;;11.40;99.90;;;12.07;100.00;98150.88;5001583;28;20518;-85
2022/10/20 05:57:52;;;;;;;17.00;9.90;;;11.40;99.90;;;12.08;100.00;98155.91;5003056;28;21040;-86
2022/10/20 06:00:29;;;;;;;19.50;10.20;;;11.40;99.90;;;12.06;100.00;98170.22;5003575;28;20475;-87
2022/10/20 06:02:59;;;;;;;17.23;10.77;;;11.40;99.90;;;12.03;100.00;98162.75;5003091;28;21247;-86
2022/10/20 06:05:28;;;;;;;21.03;11.17;;;11.30;99.90;;;12.05;100.00;98163.34;5009918;28;20538;-85
2022/10/20 06:07:58;;;;;;;17.90;10.63;;;11.30;99.90;;;12.07;100.00;98158.75;5007571;28;21040;-85
2022/10/20 06:10:27;;;;;;;19.30;10.20;;;11.40;99.90;;;12.09;100.00;98167.22;5010006;28;20436;-86
2022/10/20 06:12:56;;;;;;;13.73;8.97;;;11.30;99.90;;;12.11;100.00;98178.34;5006331;28;20495;-84
2022/10/20 06:15:27;;;;;;;22.53;11.07;;;11.30;99.90;;;12.08;100.00;98184.75;5006826;28;20475;-86
2022/10/20 06:17:56;;;;;;;25.63;11.13;;;11.30;99.90;;;12.13;100.00;98186.00;5007783;28;20448;-85
2022/10/20 06:20:26;;;;;;;26.13;10.60;;;11.50;99.90;;;12.07;100.00;98177.09;5009213;28;20482;-86
2022/10/20 06:22:57;;;;;;;17.87;10.10;;;11.40;99.90;;;12.05;100.00;98171.22;5008194;28;20446;-84
2022/10/20 06:25:26;;;;;;;15.83;10.17;;;11.40;99.90;;;12.08;100.00;98173.44;5005446;28;20463;-85
2022/10/20 06:27:55;;;;;;;18.87;9.97;;;11.40;99.90;;;12.08;100.00;98174.28;5009126;28;20466;-86
2022/10/20 06:30:24;;;;;;;19.47;10.23;;;11.40;99.90;;;12.10;100.00;98166.22;5005621;28;20507;-85
2022/10/20 06:32:54;;;;;;;20.13;10.50;;;11.50;99.90;;;12.10;100.00;98174.09;5005497;28;20523;-85
2022/10/20 06:35:23;;;;;;;26.73;10.63;;;11.50;99.90;;;12.09;100.00;98169.84;5007941;28;20458;-86
2022/10/20 06:37:52;;;;;;;32.93;10.50;;;11.40;99.90;;;12.10;100.00;98176.72;5006751;28;20495;-86
2022/10/20 06:40:22;;;;;;;19.53;10.70;;;11.40;99.90;;;12.13;100.00;98178.13;5006676;28;20471;-86
2022/10/20 06:42:51;;;;;;;31.63;9.60;;;11.40;99.90;;;12.04;100.00;98172.25;5006167;28;20479;-85
2022/10/20 06:45:20;;;;;;;17.33;10.10;;;11.30;99.90;;;12.03;100.00;98170.63;5004343;28;20452;-86
2022/10/20 06:47:50;;;;;;;19.00;10.63;;;11.30;99.90;;;12.05;100.00;98176.47;5002509;28;20517;-87
2022/10/20 06:50:18;;;;;;;27.17;10.97;;;11.30;99.90;;;12.01;100.00;98176.03;5004867;28;21045;-85
2022/10/20 06:52:48;;;;;;;25.87;10.60;;;11.30;99.90;;;12.05;100.00;98163.34;5006328;28;20907;-85
2022/10/20 06:55:17;;;;;;;19.77;10.07;;;11.40;99.90;;;11.99;100.00;98158.91;5006828;28;21001;-85
2022/10/20 06:57:47;;;;;;;31.73;10.90;;;11.30;99.90;;;11.97;100.00;98163.53;5009618;28;20485;-85
2022/10/20 07:00:16;;;;;;;23.63;11.27;;;11.30;99.90;;;11.93;100.00;98159.69;5012381;28;20455;-84
2022/10/20 07:02:45;;;;;;;13.47;9.83;;;11.30;99.90;;;11.98;100.00;98157.28;5013136;28;20468;-85
2022/10/20 07:05:14;;;;;;;15.53;9.50;;;11.30;99.90;;;11.97;100.00;98163.53;5006528;28;20520;-86
2022/10/20 07:07:43;;;;;;;21.07;10.33;;;11.30;99.90;;;11.96;100.00;98154.03;5005694;28;20495;-84
2022/10/20 07:10:12;;;;;;;29.47;10.93;;;11.30;99.90;;;11.97;100.00;98171.41;5007375;28;20462;-84
2022/10/20 07:12:41;;;;;;;21.03;10.03;;;11.30;99.90;;;11.98;100.00;98165.13;5010809;28;20486;-85
2022/10/20 07:15:12;;;;;;;15.17;10.10;;;11.40;99.90;;;11.96;100.00;98165.34;5006581;28;20514;-85
2022/10/20 07:17:42;;;;;;;25.23;9.80;;;11.40;99.90;;;11.97;100.00;98163.53;5009041;28;20543;-85
2022/10/20 07:20:12;;;;;;;16.70;9.27;;;11.30;99.90;;;11.99;100.00;98153.66;5008467;28;20555;-85
2022/10/20 07:22:40;;;;;;;23.97;10.27;;;11.30;99.90;;;12.00;100.00;98156.09;5007700;28;20514;-85
2022/10/20 07:25:10;;;;;;;18.47;10.00;;;11.30;99.90;;;11.97;100.00;98158.28;5008753;28;20502;-84
2022/10/20 07:27:39;;;;;;;17.87;10.73;;;11.30;99.90;;;11.95;100.00;98168.13;5005526;28;20518;-84
2022/10/20 07:30:10;;;;;;;26.03;10.40;;;11.30;99.90;;;11.97;100.00;98176.63;5005584;28;20447;-85
2022/10/20 07:32:41;;;;;;;16.70;9.60;;;11.40;99.90;;;11.96;100.00;98173.19;5005607;28;20482;-85
2022/10/20 07:35:10;;;;;;;23.63;10.50;;;11.40;99.90;;;11.94;100.00;98179.66;5005250;28;20455;-85
2022/10/20 07:37:38;;;;;;;26.27;10.20;;;11.30;99.90;;;11.96;100.00;98180.25;5003013;28;20494;-85
2022/10/20 07:40:08;;;;;;;18.57;9.90;;;11.30;99.90;;;11.99;100.00;98169.38;5002577;28;20545;-85
2022/10/20 07:42:37;;;;;;;17.50;10.00;;;11.30;99.90;;;12.03;100.00;98171.44;5004096;28;20452;-84
2022/10/20 07:45:08;;;;;;;14.33;8.80;;;11.40;99.90;;;12.04;100.00;98165.16;5003178;28;20535;-85
2022/10/20 07:47:39;;;;;;;18.20;10.30;;;11.40;99.90;;;12.05;100.00;98169.41;5004748;28;20529;-86
2022/10/20 07:50:12;;;;;;;28.43;10.93;;;11.50;99.90;;;12.09;100.00;98190.81;5004382;28;20454;-85
2022/10/20 07:52:42;;;;;;;17.90;9.80;;;11.60;99.90;;;12.07;100.00;98195.44;5003717;28;20605;-85
2022/10/20 07:55:11;;;;;;;24.70;10.53;;;11.60;99.90;;;12.03;100.00;98199.44;5004116;28;20522;-86
2022/10/20 07:58:00;;;;;;;17.30;9.60;;;11.50;99.90;;;12.02;100.00;98182.09;5004164;28;20448;-85
2022/10/20 08:00:29;;;;;;;24.60;9.90;;;11.50;99.90;;;12.04;100.00;98190.59;5003706;28;20459;-85
2022/10/20 08:02:59;;;;;;;19.67;11.30;;;11.40;99.90;;;12.06;100.00;98175.47;5003186;28;20473;-86
2022/10/20 08:05:29;;;;;;;22.10;10.90;;;11.40;99.90;;;12.11;100.00;98181.75;5003459;28;20886;-84
2022/10/20 08:07:59;;;;;;;22.40;10.77;;;11.60;99.90;;;12.13;100.00;98193.84;5002747;28;20452;-85
2022/10/20 08:10:28;;;;;;;46.57;11.13;;;11.60;99.90;;;12.15;100.00;98187.41;5003848;28;20448;-84
2022/10/20 08:12:57;;;;;;;24.43;11.17;;;11.60;99.90;;;12.17;100.00;98174.94;5004405;28;20509;-84
2022/10/20 08:15:25;;;;;;;20.53;11.83;;;11.60;99.90;;;12.16;100.00;98165.44;5004416;28;20909;-85
2022/10/20 08:17:54;;;;;;;17.23;10.13;;;11.60;99.90;;;12.17;100.00;98161.00;5003984;28;20955;-84
2022/10/20 08:20:26;;;;;;;30.03;11.60;;;11.60;99.90;;;12.18;100.00;98168.69;5003667;28;20554;-85
2022/10/20 08:23:07;;;;;;;21.10;11.10;;;11.60;99.90;;;12.23;100.00;98168.91;5004203;28;20459;-85
2022/10/20 08:25:36;;;;;;;19.80;9.87;;;11.70;99.90;;;12.26;100.00;98170.31;5003134;28;20476;-84
2022/10/20 08:28:05;;;;;;;20.37;11.83;;;11.80;99.90;;;12.25;100.00;98174.75;5004158;28;20525;-85
2022/10/20 08:30:35;;;;;;;23.10;11.63;;;11.80;99.90;;;12.26;100.00;98165.91;5004953;28;21210;-84
2022/10/20 08:33:04;;;;;;;22.20;10.80;;;11.70;99.90;;;12.29;100.00;98169.94;5003908;28;20498;-86
2022/10/20 08:35:34;;;;;;;18.60;10.77;;;11.80;99.90;;;12.29;100.00;98176.00;5004605;28;20567;-84
2022/10/20 08:38:06;;;;;;;30.13;11.90;;;11.80;99.90;;;12.34;100.00;98178.84;5006632;28;20527;-85
2022/10/20 08:40:40;;;;;;;19.53;9.77;;;11.80;99.90;;;12.33;100.00;98179.84;5006014;28;20451;-85
2022/10/20 08:43:17;;;;;;;30.30;10.20;;;11.80;99.90;;;12.36;100.00;98166.34;5009170;28;20470;-85
2022/10/20 08:45:46;;;;;;;17.90;10.73;;;11.80;99.90;;;12.34;100.00;98168.38;5006268;28;20562;-85
2022/10/20 08:48:22;;;;;;;23.17;12.50;;;11.80;99.90;;;12.38;100.00;98153.84;5006222;28;20474;-85
2022/10/20 08:50:54;;;;;;;23.23;12.10;;;11.80;99.90;;;12.42;100.00;98165.59;5007222;28;20459;-85
2022/10/20 08:53:26;;;;;;;26.53;10.70;;;11.80;99.90;;;12.49;100.00;98176.09;5006624;28;20978;-83
2022/10/20 08:55:56;;;;;;;28.03;11.77;;;11.80;99.90;;;12.51;100.00;98167.03;5006327;28;20960;-84
2022/10/20 08:58:25;;;;;;;25.50;12.93;;;11.90;99.90;;;12.56;100.00;98156.72;5006357;28;20529;-85
2022/10/20 09:00:59;;;;;;;24.20;10.27;;;11.90;99.90;;;12.58;100.00;98159.16;5007743;28;21413;-84
2022/10/20 09:03:33;;;;;;;19.63;11.60;;;12.00;99.90;;;12.58;100.00;98164.41;5007197;28;20878;-84
2022/10/20 09:06:12;;;;;;;21.00;10.57;;;12.00;99.90;;;12.59;100.00;98161.63;5007093;28;20786;-85
2022/10/20 09:08:43;;;;;;;16.03;10.30;;;12.00;99.90;;;12.61;100.00;98158.78;5009153;28;20483;-86
2022/10/20 09:11:22;;;;;;;24.40;10.90;;;12.00;99.90;;;12.65;100.00;98151.31;5006170;28;20452;-84
2022/10/20 09:13:52;;;;;;;21.07;10.97;;;12.00;99.90;;;12.68;100.00;98158.78;5004131;28;20601;-84
2022/10/20 09:16:28;;;;;;;14.20;9.00;;;12.10;99.90;;;12.69;100.00;98161.22;5002791;28;20510;-84
2022/10/20 09:19:17;;;;;;;15.73;10.20;;;12.10;99.90;;;12.70;100.00;98147.13;5004964;28;20509;-85
2022/10/20 09:21:53;;;;;;;30.67;11.07;;;12.20;99.90;;;12.71;100.00;98158.41;5002918;28;21316;-85
2022/10/20 09:24:26;;;;;;;20.20;9.97;;;12.00;99.90;;;12.73;100.00;98149.34;5007784;28;20873;-84
2022/10/20 09:26:55;;;;;;;22.40;10.50;;;12.20;99.90;;;12.70;100.00;98162.03;5005940;28;20505;-84
2022/10/20 09:29:37;;;;;;;22.33;11.03;;;12.10;99.90;;;12.73;100.00;98170.34;5005670;28;20451;-86
2022/10/20 09:32:19;;;;;;;17.60;9.97;;;12.10;99.90;;;12.74;100.00;98169.31;5006509;28;20497;-85
2022/10/20 09:35:27;;;;;;;29.80;10.70;;;12.10;99.90;;;12.76;100.00;98171.75;5005526;28;20466;-86
2022/10/20 09:38:04;;;;;;;16.10;9.20;;;12.10;99.90;;;12.78;100.00;98151.34;5003893;28;21035;-85
2022/10/20 09:40:34;;;;;;;20.23;10.03;;;12.10;99.90;;;12.78;100.00;98132.97;5005111;28;20453;-86
2022/10/20 09:43:11;;;;;;;28.60;10.40;;;12.10;99.90;;;12.83;100.00;98154.19;5005242;28;20467;-86
2022/10/20 09:45:52;;;;;;;29.33;10.20;;;12.10;99.90;;;12.86;100.00;98148.56;5003920;28;20876;-85
2022/10/20 09:48:27;;;;;;;23.73;10.70;;;12.20;99.90;;;12.90;100.00;98131.41;5002343;28;20545;-86
2022/10/20 09:50:59;;;;;;;19.33;10.33;;;12.20;99.90;;;12.95;100.00;98135.03;5002763;28;20462;-87
2022/10/20 09:53:35;;;;;;;22.93;10.83;;;12.30;99.90;;;12.99;100.00;98130.19;5003024;28;20483;-86
2022/10/20 09:56:06;;;;;;;19.80;10.20;;;12.30;99.90;;;13.02;100.00;98140.28;5002351;28;20494;-86
2022/10/20 09:58:40;;;;;;;22.50;10.90;;;12.40;99.90;;;13.01;100.00;98138.69;5002870;28;21038;-84
2022/10/20 10:01:16;;;;;;;17.23;9.67;;;12.40;99.90;;;13.03;100.00;98128.78;4999312;28;20518;-84
2022/10/20 10:03:47;;;;;;;19.40;10.30;;;12.40;99.90;;;13.08;100.00;98121.13;5000996;28;20536;-84
2022/10/20 10:06:41;;;;;;;19.37;10.50;;;12.40;99.90;;;13.14;100.00;98117.72;4999966;28;20456;-84
2022/10/20 10:09:34;;;;;;;18.93;9.83;;;12.50;99.90;;;13.22;100.00;98109.66;4996798;28;20462;-85
2022/10/20 10:12:14;;;;;;;17.60;9.73;;;12.60;99.90;;;13.26;100.00;98099.56;4999088;28;20964;-84
2022/10/20 10:14:53;;;;;;;30.60;9.07;;;12.70;99.90;;;13.31;100.00;98100.56;5000270;28;20498;-85
2022/10/20 10:17:30;;;;;;;20.00;9.90;;;12.70;99.90;;;13.35;100.00;98093.91;5002047;28;20451;-85
2022/10/20 10:19:59;;;;;;;23.30;10.70;;;12.80;99.90;;;13.36;100.00;98084.19;5000737;28;21224;-85